sensor_id;sensor_type;location;lat;lon;timestamp;P1;durP1;ratioP1;P2;durP2;ratioP2
71288;SDS011;59068;52.502;9.860;2022-12-18T00:03:56;12.98;;;9.18;;
71288;SDS011;59068;52.502;9.860;2022-12-18T00:06:23;13.63;;;9.17;;
71288;SDS011;59068;52.502;9.860;2022-12-18T00:08:51;12.50;;;8.60;;
71288;SDS011;59068;52.502;9.860;2022-12-18T00:11:19;12.13;;;8.48;;
71288;SDS011;59068;52.502;9.860;2022-12-18T00:13:47;13.20;;;8.88;;
71288;SDS011;59068;52.502;9.860;2022-12-18T00:16:14;10.90;;;8.13;;
71288;SDS011;59068;52.502;9.860;2022-12-18T00:18:44;10.38;;;7.38;;
71288;SDS011;59068;52.502;9.860;2022-12-18T00:21:12;9.75;;;7.05;;
71288;SDS011;59068;52.502;9.860;2022-12-18T00:23:39;9.70;;;6.93;;
71288;SDS011;59068;52.502;9.860;2022-12-18T00:26:13;11.80;;;7.30;;
71288;SDS011;59068;52.502;9.860;2022-12-18T00:28:41;10.02;;;7.13;;
71288;SDS011;59068;52.502;9.860;2022-12-18T00:31:09;9.82;;;7.22;;
71288;SDS011;59068;52.502;9.860;2022-12-18T00:33:38;11.43;;;6.90;;
71288;SDS011;59068;52.502;9.860;2022-12-18T00:36:06;11.23;;;7.57;;
71288;SDS011;59068;52.502;9.860;2022-12-18T00:38:33;10.40;;;7.35;;
71288;SDS011;59068;52.502;9.860;2022-12-18T00:41:00;11.55;;;7.88;;
71288;SDS011;59068;52.502;9.860;2022-12-18T00:43:26;11.70;;;6.82;;
71288;SDS011;59068;52.502;9.860;2022-12-18T00:45:52;11.27;;;7.07;;
71288;SDS011;59068;52.502;9.860;2022-12-18T00:48:18;11.02;;;8.40;;
71288;SDS011;59068;52.502;9.860;2022-12-18T00:50:43;12.00;;;7.40;;
71288;SDS011;59068;52.502;9.860;2022-12-18T00:53:11;10.03;;;7.43;;
71288;SDS011;59068;52.502;9.860;2022-12-18T00:55:41;12.10;;;8.40;;
71288;SDS011;59068;52.502;9.860;2022-12-18T00:58:07;9.10;;;7.18;;
71288;SDS011;59068;52.502;9.860;2022-12-18T01:00:35;10.00;;;7.47;;
71288;SDS011;59068;52.502;9.860;2022-12-18T01:03:02;15.93;;;8.70;;
71288;SDS011;59068;52.502;9.860;2022-12-18T01:05:29;11.65;;;8.98;;
71288;SDS011;59068;52.502;9.860;2022-12-18T01:07:55;15.63;;;10.45;;
71288;SDS011;59068;52.502;9.860;2022-12-18T01:10:21;14.23;;;9.82;;
71288;SDS011;59068;52.502;9.860;2022-12-18T01:12:47;13.82;;;8.80;;
71288;SDS011;59068;52.502;9.860;2022-12-18T01:15:13;12.17;;;8.37;;
71288;SDS011;59068;52.502;9.860;2022-12-18T01:17:39;11.65;;;7.43;;
71288;SDS011;59068;52.502;9.860;2022-12-18T01:20:05;12.57;;;8.20;;
71288;SDS011;59068;52.502;9.860;2022-12-18T01:22:30;13.17;;;7.63;;
71288;SDS011;59068;52.502;9.860;2022-12-18T01:24:56;10.30;;;7.17;;
71288;SDS011;59068;52.502;9.860;2022-12-18T01:27:21;10.57;;;7.10;;
71288;SDS011;59068;52.502;9.860;2022-12-18T01:29:46;7.97;;;6.37;;
71288;SDS011;59068;52.502;9.860;2022-12-18T01:32:12;12.47;;;7.60;;
71288;SDS011;59068;52.502;9.860;2022-12-18T01:34:38;9.70;;;7.20;;
71288;SDS011;59068;52.502;9.860;2022-12-18T01:37:04;11.73;;;7.47;;
71288;SDS011;59068;52.502;9.860;2022-12-18T01:39:30;11.15;;;7.50;;
71288;SDS011;59068;52.502;9.860;2022-12-18T01:41:57;10.90;;;7.18;;
71288;SDS011;59068;52.502;9.860;2022-12-18T01:50:22;10.88;;;6.75;;
71288;SDS011;59068;52.502;9.860;2022-12-18T01:52:49;10.07;;;7.18;;
71288;SDS011;59068;52.502;9.860;2022-12-18T01:55:16;10.95;;;7.45;;
71288;SDS011;59068;52.502;9.860;2022-12-18T01:57:43;8.48;;;7.20;;
71288;SDS011;59068;52.502;9.860;2022-12-18T02:00:27;9.20;;;6.90;;
71288;SDS011;59068;52.502;9.860;2022-12-18T02:02:53;9.98;;;7.18;;
71288;SDS011;59068;52.502;9.860;2022-12-18T02:05:22;8.80;;;6.57;;
71288;SDS011;59068;52.502;9.860;2022-12-18T02:10:27;6.93;;;6.07;;
71288;SDS011;59068;52.502;9.860;2022-12-18T02:16:02;8.85;;;5.65;;
71288;SDS011;59068;52.502;9.860;2022-12-18T02:18:47;10.13;;;5.63;;
71288;SDS011;59068;52.502;9.860;2022-12-18T02:21:24;8.43;;;5.88;;
71288;SDS011;59068;52.502;9.860;2022-12-18T02:26:36;9.38;;;6.25;;
71288;SDS011;59068;52.502;9.860;2022-12-18T02:29:08;8.18;;;5.88;;
71288;SDS011;59068;52.502;9.860;2022-12-18T02:31:38;6.88;;;5.53;;
71288;SDS011;59068;52.502;9.860;2022-12-18T02:34:08;8.55;;;5.50;;
71288;SDS011;59068;52.502;9.860;2022-12-18T02:36:34;8.75;;;5.72;;
71288;SDS011;59068;52.502;9.860;2022-12-18T02:39:02;9.00;;;5.47;;
71288;SDS011;59068;52.502;9.860;2022-12-18T02:41:29;6.70;;;5.40;;
71288;SDS011;59068;52.502;9.860;2022-12-18T02:43:56;6.77;;;5.63;;
71288;SDS011;59068;52.502;9.860;2022-12-18T02:48:58;6.45;;;4.78;;
71288;SDS011;59068;52.502;9.860;2022-12-18T02:51:45;8.20;;;5.35;;
71288;SDS011;59068;52.502;9.860;2022-12-18T02:57:03;6.43;;;4.78;;
71288;SDS011;59068;52.502;9.860;2022-12-18T02:59:36;7.80;;;5.28;;
71288;SDS011;59068;52.502;9.860;2022-12-18T03:05:17;7.95;;;5.10;;
71288;SDS011;59068;52.502;9.860;2022-12-18T03:08:07;9.75;;;6.18;;
71288;SDS011;59068;52.502;9.860;2022-12-18T03:10:32;9.80;;;4.97;;
71288;SDS011;59068;52.502;9.860;2022-12-18T03:13:02;7.60;;;5.47;;
71288;SDS011;59068;52.502;9.860;2022-12-18T03:15:38;7.78;;;5.57;;
71288;SDS011;59068;52.502;9.860;2022-12-18T03:18:21;8.20;;;5.07;;
71288;SDS011;59068;52.502;9.860;2022-12-18T03:20:50;8.52;;;4.93;;
71288;SDS011;59068;52.502;9.860;2022-12-18T03:23:18;8.45;;;5.43;;
71288;SDS011;59068;52.502;9.860;2022-12-18T03:25:46;7.55;;;5.57;;
71288;SDS011;59068;52.502;9.860;2022-12-18T03:28:14;8.30;;;5.22;;
71288;SDS011;59068;52.502;9.860;2022-12-18T03:30:41;7.90;;;4.97;;
71288;SDS011;59068;52.502;9.860;2022-12-18T03:33:14;10.65;;;5.65;;
71288;SDS011;59068;52.502;9.860;2022-12-18T03:35:44;7.20;;;5.30;;
71288;SDS011;59068;52.502;9.860;2022-12-18T03:38:10;8.55;;;5.25;;
71288;SDS011;59068;52.502;9.860;2022-12-18T03:43:27;9.38;;;6.03;;
71288;SDS011;59068;52.502;9.860;2022-12-18T03:46:07;8.75;;;5.80;;
71288;SDS011;59068;52.502;9.860;2022-12-18T03:48:38;7.13;;;5.18;;
71288;SDS011;59068;52.502;9.860;2022-12-18T03:51:16;9.68;;;5.25;;
71288;SDS011;59068;52.502;9.860;2022-12-18T03:53:58;8.48;;;6.05;;
71288;SDS011;59068;52.502;9.860;2022-12-18T03:56:26;7.18;;;5.03;;
71288;SDS011;59068;52.502;9.860;2022-12-18T03:58:54;7.00;;;5.88;;
71288;SDS011;59068;52.502;9.860;2022-12-18T04:01:20;7.40;;;5.37;;
71288;SDS011;59068;52.502;9.860;2022-12-18T04:03:49;7.30;;;5.47;;
71288;SDS011;59068;52.502;9.860;2022-12-18T04:06:15;9.23;;;5.63;;
71288;SDS011;59068;52.502;9.860;2022-12-18T04:08:41;9.27;;;6.13;;
71288;SDS011;59068;52.502;9.860;2022-12-18T04:11:06;11.07;;;6.77;;
71288;SDS011;59068;52.502;9.860;2022-12-18T04:13:33;7.77;;;4.60;;
71288;SDS011;59068;52.502;9.860;2022-12-18T04:16:00;6.97;;;4.88;;
71288;SDS011;59068;52.502;9.860;2022-12-18T04:18:26;9.07;;;5.60;;
71288;SDS011;59068;52.502;9.860;2022-12-18T04:20:51;9.17;;;6.17;;
71288;SDS011;59068;52.502;9.860;2022-12-18T04:23:17;9.57;;;5.83;;
71288;SDS011;59068;52.502;9.860;2022-12-18T04:25:42;9.27;;;5.30;;
71288;SDS011;59068;52.502;9.860;2022-12-18T04:28:08;7.80;;;5.63;;
71288;SDS011;59068;52.502;9.860;2022-12-18T04:30:33;9.30;;;5.73;;
71288;SDS011;59068;52.502;9.860;2022-12-18T04:32:58;8.00;;;5.77;;
71288;SDS011;59068;52.502;9.860;2022-12-18T04:35:24;7.17;;;5.47;;
71288;SDS011;59068;52.502;9.860;2022-12-18T04:37:49;10.73;;;5.87;;
71288;SDS011;59068;52.502;9.860;2022-12-18T04:40:14;6.70;;;5.60;;
71288;SDS011;59068;52.502;9.860;2022-12-18T04:42:40;9.10;;;6.03;;
71288;SDS011;59068;52.502;9.860;2022-12-18T04:45:06;9.00;;;5.90;;
71288;SDS011;59068;52.502;9.860;2022-12-18T04:47:32;8.45;;;5.63;;
71288;SDS011;59068;52.502;9.860;2022-12-18T04:49:57;7.70;;;5.50;;
71288;SDS011;59068;52.502;9.860;2022-12-18T04:52:22;8.53;;;5.30;;
71288;SDS011;59068;52.502;9.860;2022-12-18T04:54:48;7.87;;;5.40;;
71288;SDS011;59068;52.502;9.860;2022-12-18T04:57:13;7.60;;;5.00;;
71288;SDS011;59068;52.502;9.860;2022-12-18T04:59:39;6.23;;;5.43;;
71288;SDS011;59068;52.502;9.860;2022-12-18T05:02:04;10.13;;;5.50;;
71288;SDS011;59068;52.502;9.860;2022-12-18T05:04:29;7.27;;;5.27;;
71288;SDS011;59068;52.502;9.860;2022-12-18T05:06:55;11.13;;;6.20;;
71288;SDS011;59068;52.502;9.860;2022-12-18T05:09:20;7.53;;;5.33;;
71288;SDS011;59068;52.502;9.860;2022-12-18T05:11:45;7.73;;;5.23;;
71288;SDS011;59068;52.502;9.860;2022-12-18T05:14:11;6.60;;;4.85;;
71288;SDS011;59068;52.502;9.860;2022-12-18T05:16:37;9.03;;;4.63;;
71288;SDS011;59068;52.502;9.860;2022-12-18T05:19:02;8.83;;;5.47;;
71288;SDS011;59068;52.502;9.860;2022-12-18T05:21:27;7.43;;;4.90;;
71288;SDS011;59068;52.502;9.860;2022-12-18T05:23:53;7.07;;;4.53;;
71288;SDS011;59068;52.502;9.860;2022-12-18T05:26:18;6.77;;;4.90;;
71288;SDS011;59068;52.502;9.860;2022-12-18T05:28:43;5.93;;;4.63;;
71288;SDS011;59068;52.502;9.860;2022-12-18T05:31:09;8.00;;;5.23;;
71288;SDS011;59068;52.502;9.860;2022-12-18T05:33:34;6.83;;;4.80;;
71288;SDS011;59068;52.502;9.860;2022-12-18T05:36:02;6.37;;;4.57;;
71288;SDS011;59068;52.502;9.860;2022-12-18T05:38:30;6.18;;;4.70;;
71288;SDS011;59068;52.502;9.860;2022-12-18T05:40:56;6.50;;;4.57;;
71288;SDS011;59068;52.502;9.860;2022-12-18T05:43:22;7.77;;;4.47;;
71288;SDS011;59068;52.502;9.860;2022-12-18T05:45:50;7.70;;;4.68;;
71288;SDS011;59068;52.502;9.860;2022-12-18T05:48:18;6.30;;;4.78;;
71288;SDS011;59068;52.502;9.860;2022-12-18T05:50:45;8.25;;;5.05;;
71288;SDS011;59068;52.502;9.860;2022-12-18T05:53:14;7.78;;;4.68;;
71288;SDS011;59068;52.502;9.860;2022-12-18T05:55:43;8.73;;;5.80;;
71288;SDS011;59068;52.502;9.860;2022-12-18T05:58:09;8.15;;;5.22;;
71288;SDS011;59068;52.502;9.860;2022-12-18T06:00:38;9.52;;;5.55;;
71288;SDS011;59068;52.502;9.860;2022-12-18T06:03:08;6.95;;;5.00;;
71288;SDS011;59068;52.502;9.860;2022-12-18T06:05:36;10.60;;;5.50;;
71288;SDS011;59068;52.502;9.860;2022-12-18T06:08:02;6.93;;;4.97;;
71288;SDS011;59068;52.502;9.860;2022-12-18T06:10:29;6.13;;;4.40;;
71288;SDS011;59068;52.502;9.860;2022-12-18T06:12:56;5.25;;;4.53;;
71288;SDS011;59068;52.502;9.860;2022-12-18T06:15:22;6.75;;;5.05;;
71288;SDS011;59068;52.502;9.860;2022-12-18T06:17:48;6.07;;;4.43;;
71288;SDS011;59068;52.502;9.860;2022-12-18T06:20:15;6.33;;;4.43;;
71288;SDS011;59068;52.502;9.860;2022-12-18T06:22:40;10.50;;;5.20;;
71288;SDS011;59068;52.502;9.860;2022-12-18T06:25:08;5.50;;;4.68;;
71288;SDS011;59068;52.502;9.860;2022-12-18T06:27:35;6.72;;;4.50;;
71288;SDS011;59068;52.502;9.860;2022-12-18T06:30:01;7.45;;;4.38;;
71288;SDS011;59068;52.502;9.860;2022-12-18T06:32:28;6.22;;;3.80;;
71288;SDS011;59068;52.502;9.860;2022-12-18T06:34:55;5.57;;;4.07;;
71288;SDS011;59068;52.502;9.860;2022-12-18T06:37:22;5.50;;;3.75;;
71288;SDS011;59068;52.502;9.860;2022-12-18T06:39:52;4.78;;;3.42;;
71288;SDS011;59068;52.502;9.860;2022-12-18T06:42:18;6.13;;;3.97;;
71288;SDS011;59068;52.502;9.860;2022-12-18T06:44:43;4.87;;;3.53;;
71288;SDS011;59068;52.502;9.860;2022-12-18T06:47:09;4.90;;;3.83;;
71288;SDS011;59068;52.502;9.860;2022-12-18T06:49:35;5.70;;;4.77;;
71288;SDS011;59068;52.502;9.860;2022-12-18T06:52:02;6.45;;;4.55;;
71288;SDS011;59068;52.502;9.860;2022-12-18T06:54:29;6.60;;;4.38;;
71288;SDS011;59068;52.502;9.860;2022-12-18T06:56:54;4.18;;;3.70;;
71288;SDS011;59068;52.502;9.860;2022-12-18T06:59:22;5.57;;;3.63;;
71288;SDS011;59068;52.502;9.860;2022-12-18T07:01:47;4.10;;;3.38;;
71288;SDS011;59068;52.502;9.860;2022-12-18T07:04:14;6.83;;;4.43;;
71288;SDS011;59068;52.502;9.860;2022-12-18T07:06:39;4.47;;;3.50;;
71288;SDS011;59068;52.502;9.860;2022-12-18T07:09:04;6.10;;;3.87;;
71288;SDS011;59068;52.502;9.860;2022-12-18T07:11:32;5.63;;;3.60;;
71288;SDS011;59068;52.502;9.860;2022-12-18T07:13:59;6.18;;;4.28;;
71288;SDS011;59068;52.502;9.860;2022-12-18T07:16:26;6.28;;;4.05;;
71288;SDS011;59068;52.502;9.860;2022-12-18T07:18:55;6.25;;;4.38;;
71288;SDS011;59068;52.502;9.860;2022-12-18T07:21:23;4.85;;;4.10;;
71288;SDS011;59068;52.502;9.860;2022-12-18T07:23:49;7.47;;;4.93;;
71288;SDS011;59068;52.502;9.860;2022-12-18T07:26:16;5.88;;;4.38;;
71288;SDS011;59068;52.502;9.860;2022-12-18T07:28:42;6.40;;;4.32;;
71288;SDS011;59068;52.502;9.860;2022-12-18T07:31:11;6.20;;;3.77;;
71288;SDS011;59068;52.502;9.860;2022-12-18T07:33:39;7.18;;;4.20;;
71288;SDS011;59068;52.502;9.860;2022-12-18T07:36:06;4.75;;;3.22;;
71288;SDS011;59068;52.502;9.860;2022-12-18T07:38:34;5.55;;;4.15;;
71288;SDS011;59068;52.502;9.860;2022-12-18T07:41:02;6.00;;;4.00;;
71288;SDS011;59068;52.502;9.860;2022-12-18T07:43:30;5.25;;;4.47;;
71288;SDS011;59068;52.502;9.860;2022-12-18T07:45:57;7.40;;;3.92;;
71288;SDS011;59068;52.502;9.860;2022-12-18T07:48:22;5.43;;;4.10;;
71288;SDS011;59068;52.502;9.860;2022-12-18T07:50:49;7.07;;;4.70;;
71288;SDS011;59068;52.502;9.860;2022-12-18T07:53:15;4.60;;;3.88;;
71288;SDS011;59068;52.502;9.860;2022-12-18T07:55:42;4.80;;;3.55;;
71288;SDS011;59068;52.502;9.860;2022-12-18T07:58:09;6.65;;;4.05;;
71288;SDS011;59068;52.502;9.860;2022-12-18T08:00:36;5.38;;;4.25;;
71288;SDS011;59068;52.502;9.860;2022-12-18T08:03:02;6.55;;;4.72;;
71288;SDS011;59068;52.502;9.860;2022-12-18T08:05:29;6.78;;;4.72;;
71288;SDS011;59068;52.502;9.860;2022-12-18T08:07:54;8.85;;;4.97;;
71288;SDS011;59068;52.502;9.860;2022-12-18T08:10:22;7.05;;;5.15;;
71288;SDS011;59068;52.502;9.860;2022-12-18T08:12:51;7.40;;;5.53;;
71288;SDS011;59068;52.502;9.860;2022-12-18T08:15:18;9.75;;;5.68;;
71288;SDS011;59068;52.502;9.860;2022-12-18T08:17:44;7.20;;;5.15;;
71288;SDS011;59068;52.502;9.860;2022-12-18T08:20:11;7.77;;;5.27;;
71288;SDS011;59068;52.502;9.860;2022-12-18T08:22:39;7.38;;;5.65;;
71288;SDS011;59068;52.502;9.860;2022-12-18T08:25:06;9.90;;;5.77;;
71288;SDS011;59068;52.502;9.860;2022-12-18T08:27:31;7.22;;;4.70;;
71288;SDS011;59068;52.502;9.860;2022-12-18T08:29:58;13.23;;;7.27;;
71288;SDS011;59068;52.502;9.860;2022-12-18T08:32:26;9.93;;;6.88;;
71288;SDS011;59068;52.502;9.860;2022-12-18T08:34:53;12.27;;;7.65;;
71288;SDS011;59068;52.502;9.860;2022-12-18T08:37:19;11.73;;;7.40;;
71288;SDS011;59068;52.502;9.860;2022-12-18T08:39:46;10.07;;;6.78;;
71288;SDS011;59068;52.502;9.860;2022-12-18T08:42:12;10.43;;;6.57;;
71288;SDS011;59068;52.502;9.860;2022-12-18T08:44:57;10.27;;;7.85;;
71288;SDS011;59068;52.502;9.860;2022-12-18T08:47:23;10.55;;;7.60;;
71288;SDS011;59068;52.502;9.860;2022-12-18T08:49:52;10.88;;;8.13;;
71288;SDS011;59068;52.502;9.860;2022-12-18T08:52:18;11.52;;;7.55;;
71288;SDS011;59068;52.502;9.860;2022-12-18T08:54:45;12.38;;;7.25;;
71288;SDS011;59068;52.502;9.860;2022-12-18T08:57:11;14.73;;;8.05;;
71288;SDS011;59068;52.502;9.860;2022-12-18T08:59:38;13.15;;;7.97;;
71288;SDS011;59068;52.502;9.860;2022-12-18T09:02:04;9.60;;;7.05;;
71288;SDS011;59068;52.502;9.860;2022-12-18T09:04:32;10.10;;;7.03;;
71288;SDS011;59068;52.502;9.860;2022-12-18T09:06:58;11.95;;;7.30;;
71288;SDS011;59068;52.502;9.860;2022-12-18T09:09:24;23.47;;;13.67;;
71288;SDS011;59068;52.502;9.860;2022-12-18T09:11:50;19.75;;;13.02;;
71288;SDS011;59068;52.502;9.860;2022-12-18T09:14:17;13.27;;;9.80;;
71288;SDS011;59068;52.502;9.860;2022-12-18T09:16:42;12.00;;;8.73;;
71288;SDS011;59068;52.502;9.860;2022-12-18T09:19:09;11.57;;;8.87;;
71288;SDS011;59068;52.502;9.860;2022-12-18T09:21:34;11.45;;;8.75;;
71288;SDS011;59068;52.502;9.860;2022-12-18T09:24:04;10.98;;;7.75;;
71288;SDS011;59068;52.502;9.860;2022-12-18T09:26:30;9.95;;;8.07;;
71288;SDS011;59068;52.502;9.860;2022-12-18T09:28:57;10.73;;;8.47;;
71288;SDS011;59068;52.502;9.860;2022-12-18T09:31:23;11.00;;;7.68;;
71288;SDS011;59068;52.502;9.860;2022-12-18T09:33:50;12.13;;;8.90;;
71288;SDS011;59068;52.502;9.860;2022-12-18T09:36:17;8.88;;;6.88;;
71288;SDS011;59068;52.502;9.860;2022-12-18T09:38:43;10.45;;;7.57;;
71288;SDS011;59068;52.502;9.860;2022-12-18T09:50:37;9.55;;;7.57;;
71288;SDS011;59068;52.502;9.860;2022-12-18T09:52:46;9.93;;;7.68;;
71288;SDS011;59068;52.502;9.860;2022-12-18T09:58:02;11.65;;;7.60;;
71288;SDS011;59068;52.502;9.860;2022-12-18T10:00:32;13.75;;;10.15;;
71288;SDS011;59068;52.502;9.860;2022-12-18T10:03:16;13.75;;;9.35;;
71288;SDS011;59068;52.502;9.860;2022-12-18T10:12:02;9.23;;;7.15;;
71288;SDS011;59068;52.502;9.860;2022-12-18T10:14:46;12.63;;;7.78;;
71288;SDS011;59068;52.502;9.860;2022-12-18T10:28:10;10.18;;;7.40;;
71288;SDS011;59068;52.502;9.860;2022-12-18T10:30:39;10.32;;;7.65;;
71288;SDS011;59068;52.502;9.860;2022-12-18T10:33:05;12.40;;;7.85;;
71288;SDS011;59068;52.502;9.860;2022-12-18T10:35:31;10.93;;;7.47;;
71288;SDS011;59068;52.502;9.860;2022-12-18T10:43:14;10.85;;;7.80;;
71288;SDS011;59068;52.502;9.860;2022-12-18T10:45:41;11.27;;;8.05;;
71288;SDS011;59068;52.502;9.860;2022-12-18T10:48:17;11.90;;;7.90;;
71288;SDS011;59068;52.502;9.860;2022-12-18T10:50:48;11.60;;;8.27;;
71288;SDS011;59068;52.502;9.860;2022-12-18T10:53:21;12.80;;;8.27;;
71288;SDS011;59068;52.502;9.860;2022-12-18T10:55:49;11.20;;;8.48;;
71288;SDS011;59068;52.502;9.860;2022-12-18T10:58:33;12.82;;;9.45;;
71288;SDS011;59068;52.502;9.860;2022-12-18T11:06:21;12.68;;;8.80;;
71288;SDS011;59068;52.502;9.860;2022-12-18T11:11:48;16.05;;;10.52;;
71288;SDS011;59068;52.502;9.860;2022-12-18T11:14:21;14.20;;;9.38;;
71288;SDS011;59068;52.502;9.860;2022-12-18T11:17:31;12.50;;;8.90;;
71288;SDS011;59068;52.502;9.860;2022-12-18T11:20:02;14.85;;;10.40;;
71288;SDS011;59068;52.502;9.860;2022-12-18T11:22:34;13.80;;;9.27;;
71288;SDS011;59068;52.502;9.860;2022-12-18T11:25:19;17.42;;;12.40;;
71288;SDS011;59068;52.502;9.860;2022-12-18T11:30:34;14.52;;;9.75;;
71288;SDS011;59068;52.502;9.860;2022-12-18T11:33:09;12.23;;;8.93;;
71288;SDS011;59068;52.502;9.860;2022-12-18T11:50:24;14.30;;;9.70;;
71288;SDS011;59068;52.502;9.860;2022-12-18T11:52:52;15.77;;;9.40;;
71288;SDS011;59068;52.502;9.860;2022-12-18T11:55:30;13.43;;;9.20;;
71288;SDS011;59068;52.502;9.860;2022-12-18T12:13:08;18.35;;;9.98;;
71288;SDS011;59068;52.502;9.860;2022-12-18T12:16:00;12.52;;;9.18;;
71288;SDS011;59068;52.502;9.860;2022-12-18T12:29:50;13.40;;;8.68;;
71288;SDS011;59068;52.502;9.860;2022-12-18T12:38:41;10.50;;;8.20;;
71288;SDS011;59068;52.502;9.860;2022-12-18T12:41:20;10.93;;;8.25;;
71288;SDS011;59068;52.502;9.860;2022-12-18T12:44:07;14.10;;;8.63;;
71288;SDS011;59068;52.502;9.860;2022-12-18T12:46:36;11.52;;;8.48;;
71288;SDS011;59068;52.502;9.860;2022-12-18T12:49:09;12.85;;;8.93;;
71288;SDS011;59068;52.502;9.860;2022-12-18T12:51:39;12.82;;;8.43;;
71288;SDS011;59068;52.502;9.860;2022-12-18T12:54:11;14.60;;;8.38;;
71288;SDS011;59068;52.502;9.860;2022-12-18T12:56:51;12.55;;;8.73;;
71288;SDS011;59068;52.502;9.860;2022-12-18T13:05:03;12.18;;;8.93;;
71288;SDS011;59068;52.502;9.860;2022-12-18T13:07:47;12.30;;;8.95;;
71288;SDS011;59068;52.502;9.860;2022-12-18T13:10:26;11.93;;;7.85;;
71288;SDS011;59068;52.502;9.860;2022-12-18T13:13:02;12.55;;;8.43;;
71288;SDS011;59068;52.502;9.860;2022-12-18T13:15:44;14.40;;;9.50;;
71288;SDS011;59068;52.502;9.860;2022-12-18T13:18:13;14.35;;;9.05;;
71288;SDS011;59068;52.502;9.860;2022-12-18T13:25:56;13.68;;;8.57;;
71288;SDS011;59068;52.502;9.860;2022-12-18T13:37:33;12.32;;;7.53;;
71288;SDS011;59068;52.502;9.860;2022-12-18T13:39:51;9.65;;;7.60;;
71288;SDS011;59068;52.502;9.860;2022-12-18T13:45:41;11.13;;;6.90;;
71288;SDS011;59068;52.502;9.860;2022-12-18T13:48:18;11.45;;;8.57;;
71288;SDS011;59068;52.502;9.860;2022-12-18T13:51:03;12.48;;;8.48;;
71288;SDS011;59068;52.502;9.860;2022-12-18T13:57:00;10.98;;;7.88;;
71288;SDS011;59068;52.502;9.860;2022-12-18T13:59:26;12.57;;;9.35;;
71288;SDS011;59068;52.502;9.860;2022-12-18T14:01:58;13.43;;;8.70;;
71288;SDS011;59068;52.502;9.860;2022-12-18T14:04:30;13.45;;;8.50;;
71288;SDS011;59068;52.502;9.860;2022-12-18T14:07:07;13.88;;;9.18;;
71288;SDS011;59068;52.502;9.860;2022-12-18T14:09:50;12.95;;;9.15;;
71288;SDS011;59068;52.502;9.860;2022-12-18T14:12:22;12.80;;;9.18;;
71288;SDS011;59068;52.502;9.860;2022-12-18T14:15:09;18.48;;;10.52;;
71288;SDS011;59068;52.502;9.860;2022-12-18T14:17:55;24.65;;;13.88;;
71288;SDS011;59068;52.502;9.860;2022-12-18T14:20:29;17.05;;;10.95;;
71288;SDS011;59068;52.502;9.860;2022-12-18T14:22:57;14.75;;;9.52;;
71288;SDS011;59068;52.502;9.860;2022-12-18T14:25:29;25.85;;;16.90;;
71288;SDS011;59068;52.502;9.860;2022-12-18T14:28:11;24.50;;;15.68;;
71288;SDS011;59068;52.502;9.860;2022-12-18T14:30:42;14.25;;;10.27;;
71288;SDS011;59068;52.502;9.860;2022-12-18T14:35:40;14.27;;;10.02;;
71288;SDS011;59068;52.502;9.860;2022-12-18T14:38:19;14.93;;;10.73;;
71288;SDS011;59068;52.502;9.860;2022-12-18T14:43:39;16.35;;;10.90;;
71288;SDS011;59068;52.502;9.860;2022-12-18T14:49:25;17.30;;;11.93;;
71288;SDS011;59068;52.502;9.860;2022-12-18T14:51:59;16.45;;;10.82;;
71288;SDS011;59068;52.502;9.860;2022-12-18T14:54:27;17.08;;;11.98;;
71288;SDS011;59068;52.502;9.860;2022-12-18T14:59:31;16.23;;;12.93;;
71288;SDS011;59068;52.502;9.860;2022-12-18T15:02:16;14.63;;;12.30;;
71288;SDS011;59068;52.502;9.860;2022-12-18T15:04:45;16.20;;;11.02;;
71288;SDS011;59068;52.502;9.860;2022-12-18T15:09:43;15.55;;;11.27;;
71288;SDS011;59068;52.502;9.860;2022-12-18T15:12:21;15.43;;;11.02;;
71288;SDS011;59068;52.502;9.860;2022-12-18T15:14:52;17.05;;;11.85;;
71288;SDS011;59068;52.502;9.860;2022-12-18T15:17:19;18.00;;;13.48;;
71288;SDS011;59068;52.502;9.860;2022-12-18T15:19:58;18.50;;;12.50;;
71288;SDS011;59068;52.502;9.860;2022-12-18T15:22:27;13.52;;;10.60;;
71288;SDS011;59068;52.502;9.860;2022-12-18T15:24:55;15.32;;;10.65;;
71288;SDS011;59068;52.502;9.860;2022-12-18T15:27:33;16.17;;;11.40;;
71288;SDS011;59068;52.502;9.860;2022-12-18T15:32:37;16.00;;;11.38;;
71288;SDS011;59068;52.502;9.860;2022-12-18T15:35:08;16.10;;;10.90;;
71288;SDS011;59068;52.502;9.860;2022-12-18T15:37:38;14.27;;;11.10;;
71288;SDS011;59068;52.502;9.860;2022-12-18T15:40:05;16.10;;;11.33;;
71288;SDS011;59068;52.502;9.860;2022-12-18T15:42:37;12.38;;;10.05;;
71288;SDS011;59068;52.502;9.860;2022-12-18T15:45:21;13.80;;;9.90;;
71288;SDS011;59068;52.502;9.860;2022-12-18T15:47:47;17.97;;;10.90;;
71288;SDS011;59068;52.502;9.860;2022-12-18T15:50:13;14.02;;;9.68;;
71288;SDS011;59068;52.502;9.860;2022-12-18T15:52:43;14.33;;;10.53;;
71288;SDS011;59068;52.502;9.860;2022-12-18T15:55:11;16.58;;;10.80;;
71288;SDS011;59068;52.502;9.860;2022-12-18T15:57:57;16.55;;;10.77;;
71288;SDS011;59068;52.502;9.860;2022-12-18T16:00:24;16.98;;;12.57;;
71288;SDS011;59068;52.502;9.860;2022-12-18T16:02:50;18.83;;;13.20;;
71288;SDS011;59068;52.502;9.860;2022-12-18T16:05:16;20.05;;;12.75;;
71288;SDS011;59068;52.502;9.860;2022-12-18T16:07:44;15.75;;;10.65;;
71288;SDS011;59068;52.502;9.860;2022-12-18T16:10:11;17.98;;;11.20;;
71288;SDS011;59068;52.502;9.860;2022-12-18T16:12:38;14.17;;;10.00;;
71288;SDS011;59068;52.502;9.860;2022-12-18T16:15:05;13.60;;;10.02;;
71288;SDS011;59068;52.502;9.860;2022-12-18T16:17:31;10.93;;;9.32;;
71288;SDS011;59068;52.502;9.860;2022-12-18T16:19:58;15.07;;;11.40;;
71288;SDS011;59068;52.502;9.860;2022-12-18T16:22:25;14.82;;;10.00;;
71288;SDS011;59068;52.502;9.860;2022-12-18T16:24:55;15.73;;;11.57;;
71288;SDS011;59068;52.502;9.860;2022-12-18T16:27:22;15.57;;;11.32;;
71288;SDS011;59068;52.502;9.860;2022-12-18T16:29:49;13.65;;;10.10;;
71288;SDS011;59068;52.502;9.860;2022-12-18T16:32:17;16.83;;;11.27;;
71288;SDS011;59068;52.502;9.860;2022-12-18T16:34:45;13.82;;;10.07;;
71288;SDS011;59068;52.502;9.860;2022-12-18T16:37:13;13.63;;;10.32;;
71288;SDS011;59068;52.502;9.860;2022-12-18T16:39:41;17.42;;;11.18;;
71288;SDS011;59068;52.502;9.860;2022-12-18T16:42:17;15.07;;;10.23;;
71288;SDS011;59068;52.502;9.860;2022-12-18T16:44:52;16.45;;;11.43;;
71288;SDS011;59068;52.502;9.860;2022-12-18T16:47:19;15.13;;;10.83;;
71288;SDS011;59068;52.502;9.860;2022-12-18T16:49:44;13.40;;;10.82;;
71288;SDS011;59068;52.502;9.860;2022-12-18T16:52:12;17.42;;;10.80;;
71288;SDS011;59068;52.502;9.860;2022-12-18T16:54:39;16.83;;;11.13;;
71288;SDS011;59068;52.502;9.860;2022-12-18T16:57:06;15.03;;;10.40;;
71288;SDS011;59068;52.502;9.860;2022-12-18T16:59:34;16.27;;;10.95;;
71288;SDS011;59068;52.502;9.860;2022-12-18T17:02:01;15.00;;;10.63;;
71288;SDS011;59068;52.502;9.860;2022-12-18T17:04:26;17.40;;;11.18;;
71288;SDS011;59068;52.502;9.860;2022-12-18T17:06:52;12.50;;;10.13;;
71288;SDS011;59068;52.502;9.860;2022-12-18T17:09:18;13.63;;;9.60;;
71288;SDS011;59068;52.502;9.860;2022-12-18T17:11:50;13.68;;;10.43;;
71288;SDS011;59068;52.502;9.860;2022-12-18T17:14:18;14.18;;;10.25;;
71288;SDS011;59068;52.502;9.860;2022-12-18T17:16:44;13.60;;;10.40;;
71288;SDS011;59068;52.502;9.860;2022-12-18T17:19:10;15.60;;;10.70;;
71288;SDS011;59068;52.502;9.860;2022-12-18T17:21:36;15.03;;;11.57;;
71288;SDS011;59068;52.502;9.860;2022-12-18T17:24:02;13.63;;;9.80;;
71288;SDS011;59068;52.502;9.860;2022-12-18T17:26:27;15.97;;;11.40;;
71288;SDS011;59068;52.502;9.860;2022-12-18T17:28:55;13.40;;;10.53;;
71288;SDS011;59068;52.502;9.860;2022-12-18T17:31:22;12.85;;;9.82;;
71288;SDS011;59068;52.502;9.860;2022-12-18T17:33:48;19.38;;;11.30;;